sensor_id;sensor_type;location;lat;lon;timestamp;temperature;humidity
3186;DHT22;1604;53.700;10.252;2024-03-08T00:01:28;0.50;99.90
3186;DHT22;1604;53.700;10.252;2024-03-08T00:04:32;0.50;99.90
3186;DHT22;1604;53.700;10.252;2024-03-08T00:07:34;0.50;99.90
3186;DHT22;1604;53.700;10.252;2024-03-08T00:10:36;0.40;99.90
3186;DHT22;1604;53.700;10.252;2024-03-08T00:13:39;0.40;99.90
3186;DHT22;1604;53.700;10.252;2024-03-08T00:16:42;0.40;99.90
3186;DHT22;1604;53.700;10.252;2024-03-08T00:19:45;0.40;99.90
3186;DHT22;1604;53.700;10.252;2024-03-08T00:22:48;0.30;99.90
3186;DHT22;1604;53.700;10.252;2024-03-08T00:25:50;0.30;99.90
3186;DHT22;1604;53.700;10.252;2024-03-08T00:28:52;0.20;99.90
3186;DHT22;1604;53.700;10.252;2024-03-08T00:31:54;0.20;99.90
3186;DHT22;1604;53.700;10.252;2024-03-08T00:34:57;0.20;99.90
3186;DHT22;1604;53.700;10.252;2024-03-08T00:37:59;0.20;99.90
3186;DHT22;1604;53.700;10.252;2024-03-08T00:41:01;0.10;99.90
3186;DHT22;1604;53.700;10.252;2024-03-08T00:44:04;0.10;99.90
3186;DHT22;1604;53.700;10.252;2024-03-08T00:47:06;0.10;99.90
3186;DHT22;1604;53.700;10.252;2024-03-08T00:50:10;0.10;99.90
3186;DHT22;1604;53.700;10.252;2024-03-08T00:53:12;0.00;99.90
3186;DHT22;1604;53.700;10.252;2024-03-08T00:56:14;0.00;99.90
3186;DHT22;1604;53.700;10.252;2024-03-08T00:59:16;0.00;99.90
3186;DHT22;1604;53.700;10.252;2024-03-08T01:02:18;0.00;99.90
3186;DHT22;1604;53.700;10.252;2024-03-08T01:05:21;0.00;99.90
3186;DHT22;1604;53.700;10.252;2024-03-08T01:08:25;-0.10;99.90
3186;DHT22;1604;53.700;10.252;2024-03-08T01:11:27;-0.10;99.90
3186;DHT22;1604;53.700;10.252;2024-03-08T01:14:29;-0.10;99.90
3186;DHT22;1604;53.700;10.252;2024-03-08T01:17:31;-0.20;99.90
3186;DHT22;1604;53.700;10.252;2024-03-08T01:20:35;-0.20;99.90
3186;DHT22;1604;53.700;10.252;2024-03-08T01:23:37;-0.20;99.90
3186;DHT22;1604;53.700;10.252;2024-03-08T01:26:39;-0.30;99.90
3186;DHT22;1604;53.700;10.252;2024-03-08T01:29:41;-0.30;99.90
3186;DHT22;1604;53.700;10.252;2024-03-08T01:32:43;-0.30;99.90
3186;DHT22;1604;53.700;10.252;2024-03-08T01:35:46;-0.30;99.90
3186;DHT22;1604;53.700;10.252;2024-03-08T01:38:48;-0.40;99.90
3186;DHT22;1604;53.700;10.252;2024-03-08T01:41:50;-0.40;99.90
3186;DHT22;1604;53.700;10.252;2024-03-08T01:44:52;-0.40;99.90
3186;DHT22;1604;53.700;10.252;2024-03-08T01:47:55;-0.50;99.90
3186;DHT22;1604;53.700;10.252;2024-03-08T01:50:59;-0.50;99.90
3186;DHT22;1604;53.700;10.252;2024-03-08T01:54:02;-0.50;99.90
3186;DHT22;1604;53.700;10.252;2024-03-08T01:57:05;-0.50;99.90
3186;DHT22;1604;53.700;10.252;2024-03-08T02:00:07;-0.50;99.90
3186;DHT22;1604;53.700;10.252;2024-03-08T02:03:11;-0.50;99.90
3186;DHT22;1604;53.700;10.252;2024-03-08T02:06:14;-0.50;99.90
3186;DHT22;1604;53.700;10.252;2024-03-08T02:09:17;-0.60;99.90
3186;DHT22;1604;53.700;10.252;2024-03-08T02:12:19;-0.60;99.90
3186;DHT22;1604;53.700;10.252;2024-03-08T02:15:22;-0.60;99.90
3186;DHT22;1604;53.700;10.252;2024-03-08T02:18:24;-0.60;99.90
3186;DHT22;1604;53.700;10.252;2024-03-08T02:21:27;-0.60;99.90
3186;DHT22;1604;53.700;10.252;2024-03-08T02:24:30;-0.70;99.90
3186;DHT22;1604;53.700;10.252;2024-03-08T02:27:32;-0.70;99.90
3186;DHT22;1604;53.700;10.252;2024-03-08T02:30:34;-0.70;99.90
3186;DHT22;1604;53.700;10.252;2024-03-08T02:33:36;-0.70;99.90
3186;DHT22;1604;53.700;10.252;2024-03-08T02:36:39;-0.70;99.90
3186;DHT22;1604;53.700;10.252;2024-03-08T02:39:42;-0.70;99.90
3186;DHT22;1604;53.700;10.252;2024-03-08T02:42:44;-0.70;99.90
3186;DHT22;1604;53.700;10.252;2024-03-08T02:45:46;-0.70;99.90
3186;DHT22;1604;53.700;10.252;2024-03-08T02:48:48;-0.80;99.90
3186;DHT22;1604;53.700;10.252;2024-03-08T02:51:53;-0.80;99.90
3186;DHT22;1604;53.700;10.252;2024-03-08T02:54:57;-0.80;99.90
3186;DHT22;1604;53.700;10.252;2024-03-08T02:57:59;-0.80;99.90
3186;DHT22;1604;53.700;10.252;2024-03-08T03:01:01;-0.90;99.90
3186;DHT22;1604;53.700;10.252;2024-03-08T03:04:04;-0.90;99.90
3186;DHT22;1604;53.700;10.252;2024-03-08T03:07:07;-0.90;99.90
3186;DHT22;1604;53.700;10.252;2024-03-08T03:10:09;-1.00;99.90
3186;DHT22;1604;53.700;10.252;2024-03-08T03:13:12;-1.00;99.90
3186;DHT22;1604;53.700;10.252;2024-03-08T03:16:17;-1.00;99.90
3186;DHT22;1604;53.700;10.252;2024-03-08T03:19:20;-1.00;99.90
3186;DHT22;1604;53.700;10.252;2024-03-08T03:22:23;-1.10;99.90
3186;DHT22;1604;53.700;10.252;2024-03-08T03:25:26;-1.10;99.90
3186;DHT22;1604;53.700;10.252;2024-03-08T03:28:33;-1.10;99.90
3186;DHT22;1604;53.700;10.252;2024-03-08T03:31:35;-1.10;99.90
3186;DHT22;1604;53.700;10.252;2024-03-08T03:34:37;-1.10;99.90
3186;DHT22;1604;53.700;10.252;2024-03-08T03:37:41;-1.10;99.90
3186;DHT22;1604;53.700;10.252;2024-03-08T03:40:45;-1.10;99.90
3186;DHT22;1604;53.700;10.252;2024-03-08T03:43:49;-1.20;99.90
3186;DHT22;1604;53.700;10.252;2024-03-08T03:46:51;-1.20;99.90
3186;DHT22;1604;53.700;10.252;2024-03-08T03:49:53;-1.20;99.90
3186;DHT22;1604;53.700;10.252;2024-03-08T03:52:57;-1.30;99.90
3186;DHT22;1604;53.700;10.252;2024-03-08T03:55:59;-1.30;99.90
3186;DHT22;1604;53.700;10.252;2024-03-08T03:59:01;-1.30;99.90
3186;DHT22;1604;53.700;10.252;2024-03-08T04:02:03;-1.30;99.90
3186;DHT22;1604;53.700;10.252;2024-03-08T04:05:07;-1.30;99.90
3186;DHT22;1604;53.700;10.252;2024-03-08T04:08:10;-1.30;99.90
3186;DHT22;1604;53.700;10.252;2024-03-08T04:11:12;-1.30;99.90
3186;DHT22;1604;53.700;10.252;2024-03-08T04:14:16;-1.30;99.90
3186;DHT22;1604;53.700;10.252;2024-03-08T04:17:18;-1.30;99.90
3186;DHT22;1604;53.700;10.252;2024-03-08T04:20:21;-1.30;99.90
3186;DHT22;1604;53.700;10.252;2024-03-08T04:23:24;-1.30;99.90
3186;DHT22;1604;53.700;10.252;2024-03-08T04:26:26;-1.30;99.90
3186;DHT22;1604;53.700;10.252;2024-03-08T04:29:28;-1.30;99.90
3186;DHT22;1604;53.700;10.252;2024-03-08T04:32:30;-1.30;99.90
3186;DHT22;1604;53.700;10.252;2024-03-08T04:35:32;-1.30;99.90
3186;DHT22;1604;53.700;10.252;2024-03-08T04:38:36;-1.30;99.90
3186;DHT22;1604;53.700;10.252;2024-03-08T04:41:41;-1.30;99.90
3186;DHT22;1604;53.700;10.252;2024-03-08T04:44:44;-1.30;99.90
3186;DHT22;1604;53.700;10.252;2024-03-08T04:47:46;-1.30;99.90
3186;DHT22;1604;53.700;10.252;2024-03-08T04:50:48;-1.20;99.90
3186;DHT22;1604;53.700;10.252;2024-03-08T04:53:51;-1.20;99.90
3186;DHT22;1604;53.700;10.252;2024-03-08T04:56:53;-1.20;99.90
3186;DHT22;1604;53.700;10.252;2024-03-08T04:59:56;-1.20;99.90
3186;DHT22;1604;53.700;10.252;2024-03-08T05:02:58;-1.20;99.90
3186;DHT22;1604;53.700;10.252;2024-03-08T05:06:00;-1.20;99.90
3186;DHT22;1604;53.700;10.252;2024-03-08T05:09:04;-1.10;99.90
3186;DHT22;1604;53.700;10.252;2024-03-08T05:12:14;-1.10;99.90
3186;DHT22;1604;53.700;10.252;2024-03-08T05:15:16;-1.10;99.90
3186;DHT22;1604;53.700;10.252;2024-03-08T05:18:18;-1.10;99.90
3186;DHT22;1604;53.700;10.252;2024-03-08T05:21:20;-1.00;99.90
3186;DHT22;1604;53.700;10.252;2024-03-08T05:24:23;-1.00;99.90
3186;DHT22;1604;53.700;10.252;2024-03-08T05:27:25;-1.00;99.90
3186;DHT22;1604;53.700;10.252;2024-03-08T05:30:29;-1.00;99.90
3186;DHT22;1604;53.700;10.252;2024-03-08T05:33:30;-1.00;99.90
3186;DHT22;1604;53.700;10.252;2024-03-08T05:36:35;-1.00;99.90
3186;DHT22;1604;53.700;10.252;2024-03-08T05:39:38;-0.90;99.90
3186;DHT22;1604;53.700;10.252;2024-03-08T05:42:41;-0.90;99.90
3186;DHT22;1604;53.700;10.252;2024-03-08T05:45:43;-0.90;99.90
3186;DHT22;1604;53.700;10.252;2024-03-08T05:48:45;-0.90;99.90
3186;DHT22;1604;53.700;10.252;2024-03-08T05:51:47;-0.90;99.90
3186;DHT22;1604;53.700;10.252;2024-03-08T05:54:51;-0.90;99.90
3186;DHT22;1604;53.700;10.252;2024-03-08T05:57:53;-0.90;99.90
3186;DHT22;1604;53.700;10.252;2024-03-08T06:00:55;-0.90;99.90
3186;DHT22;1604;53.700;10.252;2024-03-08T06:03:57;-1.00;99.90
3186;DHT22;1604;53.700;10.252;2024-03-08T06:07:00;-1.00;99.90
3186;DHT22;1604;53.700;10.252;2024-03-08T06:10:06;-1.00;99.90
3186;DHT22;1604;53.700;10.252;2024-03-08T06:13:10;-1.00;99.90
3186;DHT22;1604;53.700;10.252;2024-03-08T06:16:12;-1.00;99.90
3186;DHT22;1604;53.700;10.252;2024-03-08T06:19:14;-1.00;99.90
3186;DHT22;1604;53.700;10.252;2024-03-08T06:22:16;-1.00;99.90
3186;DHT22;1604;53.700;10.252;2024-03-08T06:25:21;-1.10;99.90
3186;DHT22;1604;53.700;10.252;2024-03-08T06:28:23;-1.10;99.90
3186;DHT22;1604;53.700;10.252;2024-03-08T06:31:26;-1.00;99.90
3186;DHT22;1604;53.700;10.252;2024-03-08T06:34:27;-1.00;99.90
3186;DHT22;1604;53.700;10.252;2024-03-08T06:37:29;-1.10;99.90
3186;DHT22;1604;53.700;10.252;2024-03-08T06:40:33;-1.10;99.90
3186;DHT22;1604;53.700;10.252;2024-03-08T06:43:35;-1.10;99.90
3186;DHT22;1604;53.700;10.252;2024-03-08T06:46:37;-1.10;99.90
3186;DHT22;1604;53.700;10.252;2024-03-08T06:49:39;-1.10;99.90
3186;DHT22;1604;53.700;10.252;2024-03-08T06:52:41;-1.00;99.90
3186;DHT22;1604;53.700;10.252;2024-03-08T06:55:46;-1.00;99.90
3186;DHT22;1604;53.700;10.252;2024-03-08T06:58:48;-1.00;99.90
3186;DHT22;1604;53.700;10.252;2024-03-08T07:01:50;-0.90;99.90
3186;DHT22;1604;53.700;10.252;2024-03-08T07:04:54;-0.90;99.90
3186;DHT22;1604;53.700;10.252;2024-03-08T07:07:56;-0.90;99.90
3186;DHT22;1604;53.700;10.252;2024-03-08T07:11:00;-0.90;99.90
3186;DHT22;1604;53.700;10.252;2024-03-08T07:14:02;-0.90;99.90
3186;DHT22;1604;53.700;10.252;2024-03-08T07:17:07;-0.90;99.90
3186;DHT22;1604;53.700;10.252;2024-03-08T07:20:10;-0.90;99.90
3186;DHT22;1604;53.700;10.252;2024-03-08T07:23:14;-0.80;99.90
3186;DHT22;1604;53.700;10.252;2024-03-08T07:26:37;-0.80;99.90
3186;DHT22;1604;53.700;10.252;2024-03-08T07:29:39;-0.80;99.90
3186;DHT22;1604;53.700;10.252;2024-03-08T07:32:41;-0.80;99.90
3186;DHT22;1604;53.700;10.252;2024-03-08T07:35:44;-0.70;99.90
3186;DHT22;1604;53.700;10.252;2024-03-08T07:38:47;-0.60;99.90
3186;DHT22;1604;53.700;10.252;2024-03-08T07:41:50;-0.60;99.90
3186;DHT22;1604;53.700;10.252;2024-03-08T07:44:53;-0.40;99.90
3186;DHT22;1604;53.700;10.252;2024-03-08T07:47:55;-0.30;99.90
3186;DHT22;1604;53.700;10.252;2024-03-08T07:50:57;-0.20;99.90
3186;DHT22;1604;53.700;10.252;2024-03-08T07:53:59;-0.10;99.90
3186;DHT22;1604;53.700;10.252;2024-03-08T07:57:02;-0.10;99.90
3186;DHT22;1604;53.700;10.252;2024-03-08T08:00:06;0.00;99.90
3186;DHT22;1604;53.700;10.252;2024-03-08T08:03:09;0.10;99.90
3186;DHT22;1604;53.700;10.252;2024-03-08T08:06:10;0.30;99.90
3186;DHT22;1604;53.700;10.252;2024-03-08T08:09:16;0.40;99.90
3186;DHT22;1604;53.700;10.252;2024-03-08T08:12:30;0.60;99.90
3186;DHT22;1604;53.700;10.252;2024-03-08T08:15:35;0.70;99.90
3186;DHT22;1604;53.700;10.252;2024-03-08T08:18:37;0.90;99.90
3186;DHT22;1604;53.700;10.252;2024-03-08T08:21:39;1.00;99.90
3186;DHT22;1604;53.700;10.252;2024-03-08T08:24:41;1.10;99.90
3186;DHT22;1604;53.700;10.252;2024-03-08T08:27:44;1.20;99.90
3186;DHT22;1604;53.700;10.252;2024-03-08T08:30:46;1.30;99.90
3186;DHT22;1604;53.700;10.252;2024-03-08T08:33:49;1.40;99.90
3186;DHT22;1604;53.700;10.252;2024-03-08T08:36:52;1.50;99.90
3186;DHT22;1604;53.700;10.252;2024-03-08T08:39:55;1.60;99.90
3186;DHT22;1604;53.700;10.252;2024-03-08T08:42:58;1.80;99.90
3186;DHT22;1604;53.700;10.252;2024-03-08T08:46:00;1.90;99.90
3186;DHT22;1604;53.700;10.252;2024-03-08T08:49:02;2.00;99.90
3186;DHT22;1604;53.700;10.252;2024-03-08T08:52:04;2.10;99.90
3186;DHT22;1604;53.700;10.252;2024-03-08T08:55:06;2.20;99.90
3186;DHT22;1604;53.700;10.252;2024-03-08T08:58:10;2.30;99.90
3186;DHT22;1604;53.700;10.252;2024-03-08T09:01:12;2.30;99.90
3186;DHT22;1604;53.700;10.252;2024-03-08T09:04:15;2.40;99.90
3186;DHT22;1604;53.700;10.252;2024-03-08T09:07:17;2.30;99.90
3186;DHT22;1604;53.700;10.252;2024-03-08T09:10:22;2.40;99.90
3186;DHT22;1604;53.700;10.252;2024-03-08T09:13:26;2.40;99.90
3186;DHT22;1604;53.700;10.252;2024-03-08T09:16:30;2.40;99.90
3186;DHT22;1604;53.700;10.252;2024-03-08T09:19:33;2.50;99.90
3186;DHT22;1604;53.700;10.252;2024-03-08T09:22:35;2.60;99.90
3186;DHT22;1604;53.700;10.252;2024-03-08T09:25:37;2.60;99.90
3186;DHT22;1604;53.700;10.252;2024-03-08T09:28:41;2.70;99.90
3186;DHT22;1604;53.700;10.252;2024-03-08T09:31:43;2.80;99.90
3186;DHT22;1604;53.700;10.252;2024-03-08T09:34:46;2.90;99.90
3186;DHT22;1604;53.700;10.252;2024-03-08T09:37:49;3.00;99.90
3186;DHT22;1604;53.700;10.252;2024-03-08T09:40:52;3.00;99.90
3186;DHT22;1604;53.700;10.252;2024-03-08T09:43:55;3.00;99.90
3186;DHT22;1604;53.700;10.252;2024-03-08T09:47:00;3.10;99.90
3186;DHT22;1604;53.700;10.252;2024-03-08T09:50:04;3.20;99.90
3186;DHT22;1604;53.700;10.252;2024-03-08T09:53:06;3.20;99.90
3186;DHT22;1604;53.700;10.252;2024-03-08T09:56:12;3.30;99.90
3186;DHT22;1604;53.700;10.252;2024-03-08T09:59:16;3.40;99.90
3186;DHT22;1604;53.700;10.252;2024-03-08T10:02:45;3.40;99.90
3186;DHT22;1604;53.700;10.252;2024-03-08T10:05:47;3.60;99.90
3186;DHT22;1604;53.700;10.252;2024-03-08T10:08:49;3.70;99.90
3186;DHT22;1604;53.700;10.252;2024-03-08T10:11:53;3.80;99.90
3186;DHT22;1604;53.700;10.252;2024-03-08T10:14:58;3.90;99.90
3186;DHT22;1604;53.700;10.252;2024-03-08T10:18:04;4.10;99.90
3186;DHT22;1604;53.700;10.252;2024-03-08T10:21:08;4.10;99.90
3186;DHT22;1604;53.700;10.252;2024-03-08T10:24:10;4.20;99.90
3186;DHT22;1604;53.700;10.252;2024-03-08T10:27:14;4.40;99.90
3186;DHT22;1604;53.700;10.252;2024-03-08T10:30:19;4.50;99.90
3186;DHT22;1604;53.700;10.252;2024-03-08T10:33:22;4.70;99.90
3186;DHT22;1604;53.700;10.252;2024-03-08T10:36:24;4.80;99.90
3186;DHT22;1604;53.700;10.252;2024-03-08T10:39:27;5.00;99.90
3186;DHT22;1604;53.700;10.252;2024-03-08T10:42:33;5.10;99.90
3186;DHT22;1604;53.700;10.252;2024-03-08T10:45:40;5.30;99.90
3186;DHT22;1604;53.700;10.252;2024-03-08T10:48:44;5.40;99.90
3186;DHT22;1604;53.700;10.252;2024-03-08T10:51:48;5.50;99.90
3186;DHT22;1604;53.700;10.252;2024-03-08T10:54:52;5.70;99.90
3186;DHT22;1604;53.700;10.252;2024-03-08T10:57:56;5.80;99.90
3186;DHT22;1604;53.700;10.252;2024-03-08T11:01:00;6.10;99.90
3186;DHT22;1604;53.700;10.252;2024-03-08T11:04:04;6.50;99.70
3186;DHT22;1604;53.700;10.252;2024-03-08T11:07:06;6.80;96.80
3186;DHT22;1604;53.700;10.252;2024-03-08T11:10:19;7.10;93.60
3186;DHT22;1604;53.700;10.252;2024-03-08T11:13:34;7.40;91.50
3186;DHT22;1604;53.700;10.252;2024-03-08T11:16:47;7.70;89.90
3186;DHT22;1604;53.700;10.252;2024-03-08T11:19:49;7.90;85.30
3186;DHT22;1604;53.700;10.252;2024-03-08T11:22:53;8.10;85.10
3186;DHT22;1604;53.700;10.252;2024-03-08T11:25:55;8.20;83.30
3186;DHT22;1604;53.700;10.252;2024-03-08T11:29:32;8.40;81.00
3186;DHT22;1604;53.700;10.252;2024-03-08T11:32:38;8.50;79.30
3186;DHT22;1604;53.700;10.252;2024-03-08T11:35:40;8.60;78.90
3186;DHT22;1604;53.700;10.252;2024-03-08T11:38:46;8.70;78.20
3186;DHT22;1604;53.700;10.252;2024-03-08T11:41:49;8.90;77.60
3186;DHT22;1604;53.700;10.252;2024-03-08T11:44:52;8.90;77.00
3186;DHT22;1604;53.700;10.252;2024-03-08T11:47:55;9.00;76.90
3186;DHT22;1604;53.700;10.252;2024-03-08T11:51:00;9.20;76.80
3186;DHT22;1604;53.700;10.252;2024-03-08T11:54:10;9.30;72.20
3186;DHT22;1604;53.700;10.252;2024-03-08T11:57:12;9.30;72.80
3186;DHT22;1604;53.700;10.252;2024-03-08T12:00:16;9.50;71.80
3186;DHT22;1604;53.700;10.252;2024-03-08T12:03:24;9.50;69.90
3186;DHT22;1604;53.700;10.252;2024-03-08T12:06:27;9.50;71.80
3186;DHT22;1604;53.700;10.252;2024-03-08T12:09:37;9.60;68.90
3186;DHT22;1604;53.700;10.252;2024-03-08T12:12:39;9.60;69.10
3186;DHT22;1604;53.700;10.252;2024-03-08T12:15:42;9.50;70.40
3186;DHT22;1604;53.700;10.252;2024-03-08T12:18:46;9.50;70.60
3186;DHT22;1604;53.700;10.252;2024-03-08T12:21:49;9.60;69.30
3186;DHT22;1604;53.700;10.252;2024-03-08T12:25:03;9.70;66.50
3186;DHT22;1604;53.700;10.252;2024-03-08T12:28:08;9.60;67.90
3186;DHT22;1604;53.700;10.252;2024-03-08T12:31:13;9.70;69.20
3186;DHT22;1604;53.700;10.252;2024-03-08T12:34:19;9.70;68.50
3186;DHT22;1604;53.700;10.252;2024-03-08T12:37:21;9.80;67.60
3186;DHT22;1604;53.700;10.252;2024-03-08T12:40:27;9.80;67.90
3186;DHT22;1604;53.700;10.252;2024-03-08T12:43:30;9.90;68.90
3186;DHT22;1604;53.700;10.252;2024-03-08T12:46:32;9.90;68.40
3186;DHT22;1604;53.700;10.252;2024-03-08T12:49:36;9.90;68.40
3186;DHT22;1604;53.700;10.252;2024-03-08T12:52:40;10.00;68.40
3186;DHT22;1604;53.700;10.252;2024-03-08T12:55:42;10.00;67.90
3186;DHT22;1604;53.700;10.252;2024-03-08T12:58:43;10.10;67.70
3186;DHT22;1604;53.700;10.252;2024-03-08T13:01:45;10.10;69.40
3186;DHT22;1604;53.700;10.252;2024-03-08T13:04:51;10.10;67.70
3186;DHT22;1604;53.700;10.252;2024-03-08T13:07:58;10.10;69.60
3186;DHT22;1604;53.700;10.252;2024-03-08T13:11:00;10.10;66.90
3186;DHT22;1604;53.700;10.252;2024-03-08T13:14:03;10.10;68.20
3186;DHT22;1604;53.700;10.252;2024-03-08T13:17:05;10.20;66.90
3186;DHT22;1604;53.700;10.252;2024-03-08T13:20:12;10.20;65.20
3186;DHT22;1604;53.700;10.252;2024-03-08T13:23:18;10.10;65.40
3186;DHT22;1604;53.700;10.252;2024-03-08T13:26:20;10.10;64.40
3186;DHT22;1604;53.700;10.252;2024-03-08T13:29:22;10.00;65.30
3186;DHT22;1604;53.700;10.252;2024-03-08T13:32:24;10.00;67.40
3186;DHT22;1604;53.700;10.252;2024-03-08T13:35:28;10.10;65.00
3186;DHT22;1604;53.700;10.252;2024-03-08T13:38:31;10.10;65.60
3186;DHT22;1604;53.700;10.252;2024-03-08T13:41:34;10.10;65.00
3186;DHT22;1604;53.700;10.252;2024-03-08T13:44:36;10.00;63.90
3186;DHT22;1604;53.700;10.252;2024-03-08T13:47:38;9.90;64.30
3186;DHT22;1604;53.700;10.252;2024-03-08T13:50:42;9.90;65.40
3186;DHT22;1604;53.700;10.252;2024-03-08T13:53:44;9.90;66.50
3186;DHT22;1604;53.700;10.252;2024-03-08T13:56:47;10.00;62.80
3186;DHT22;1604;53.700;10.252;2024-03-08T13:59:50;10.00;63.10
3186;DHT22;1604;53.700;10.252;2024-03-08T14:02:52;9.90;64.30
3186;DHT22;1604;53.700;10.252;2024-03-08T14:05:55;9.90;64.20
3186;DHT22;1604;53.700;10.252;2024-03-08T14:08:58;9.80;64.30
3186;DHT22;1604;53.700;10.252;2024-03-08T14:12:00;9.80;65.30
3186;DHT22;1604;53.700;10.252;2024-03-08T14:15:04;9.70;65.60
3186;DHT22;1604;53.700;10.252;2024-03-08T14:18:07;9.60;66.20
3186;DHT22;1604;53.700;10.252;2024-03-08T14:21:10;9.60;66.90
3186;DHT22;1604;53.700;10.252;2024-03-08T14:24:12;9.50;66.40
3186;DHT22;1604;53.700;10.252;2024-03-08T14:27:15;9.50;65.20
3186;DHT22;1604;53.700;10.252;2024-03-08T14:30:19;9.50;64.60
3186;DHT22;1604;53.700;10.252;2024-03-08T14:33:32;9.40;65.50
3186;DHT22;1604;53.700;10.252;2024-03-08T14:36:36;9.40;66.00
3186;DHT22;1604;53.700;10.252;2024-03-08T14:39:38;9.40;66.50
3186;DHT22;1604;53.700;10.252;2024-03-08T14:42:41;9.40;65.20
3186;DHT22;1604;53.700;10.252;2024-03-08T14:45:45;9.30;65.70
3186;DHT22;1604;53.700;10.252;2024-03-08T14:48:48;9.30;66.50
3186;DHT22;1604;53.700;10.252;2024-03-08T14:51:53;9.20;67.90
3186;DHT22;1604;53.700;10.252;2024-03-08T14:54:55;9.10;69.40
3186;DHT22;1604;53.700;10.252;2024-03-08T14:57:58;9.10;70.30
3186;DHT22;1604;53.700;10.252;2024-03-08T15:01:01;9.00;69.90
3186;DHT22;1604;53.700;10.252;2024-03-08T15:04:03;9.00;69.90
3186;DHT22;1604;53.700;10.252;2024-03-08T15:07:10;9.00;70.40
3186;DHT22;1604;53.700;10.252;2024-03-08T15:10:12;8.80;70.80
3186;DHT22;1604;53.700;10.252;2024-03-08T15:13:16;8.70;71.80
3186;DHT22;1604;53.700;10.252;2024-03-08T15:16:23;8.70;72.30
3186;DHT22;1604;53.700;10.252;2024-03-08T15:19:25;8.70;71.20
3186;DHT22;1604;53.700;10.252;2024-03-08T15:22:30;8.70;71.10
3186;DHT22;1604;53.700;10.252;2024-03-08T15:25:32;8.60;72.10
3186;DHT22;1604;53.700;10.252;2024-03-08T15:28:35;8.50;71.50
3186;DHT22;1604;53.700;10.252;2024-03-08T15:31:37;8.40;72.60
3186;DHT22;1604;53.700;10.252;2024-03-08T15:34:42;8.30;72.60
3186;DHT22;1604;53.700;10.252;2024-03-08T15:37:45;8.30;73.60
3186;DHT22;1604;53.700;10.252;2024-03-08T15:40:47;8.20;73.80
3186;DHT22;1604;53.700;10.252;2024-03-08T15:43:52;8.10;73.50
3186;DHT22;1604;53.700;10.252;2024-03-08T15:46:55;8.10;73.90
3186;DHT22;1604;53.700;10.252;2024-03-08T15:49:57;8.10;74.00
3186;DHT22;1604;53.700;10.252;2024-03-08T15:53:05;8.10;73.10
3186;DHT22;1604;53.700;10.252;2024-03-08T15:56:07;8.10;72.30
3186;DHT22;1604;53.700;10.252;2024-03-08T15:59:10;7.90;73.40
3186;DHT22;1604;53.700;10.252;2024-03-08T16:02:12;7.90;73.10
3186;DHT22;1604;53.700;10.252;2024-03-08T16:05:15;7.80;74.00
3186;DHT22;1604;53.700;10.252;2024-03-08T16:08:19;7.80;73.80
3186;DHT22;1604;53.700;10.252;2024-03-08T16:11:21;7.70;74.30
3186;DHT22;1604;53.700;10.252;2024-03-08T16:14:23;7.70;74.80
3186;DHT22;1604;53.700;10.252;2024-03-08T16:17:26;7.70;74.70
3186;DHT22;1604;53.700;10.252;2024-03-08T16:20:28;7.60;75.40
3186;DHT22;1604;53.700;10.252;2024-03-08T16:23:32;7.60;75.40
3186;DHT22;1604;53.700;10.252;2024-03-08T16:26:35;7.50;76.20
3186;DHT22;1604;53.700;10.252;2024-03-08T16:29:37;7.50;75.90
3186;DHT22;1604;53.700;10.252;2024-03-08T16:32:42;7.50;75.90
3186;DHT22;1604;53.700;10.252;2024-03-08T16:35:44;7.40;76.20
3186;DHT22;1604;53.700;10.252;2024-03-08T16:38:48;7.40;76.70
3186;DHT22;1604;53.700;10.252;2024-03-08T16:41:50;7.30;77.00
3186;DHT22;1604;53.700;10.252;2024-03-08T16:44:53;7.30;77.00
3186;DHT22;1604;53.700;10.252;2024-03-08T16:47:54;7.20;77.00
3186;DHT22;1604;53.700;10.252;2024-03-08T16:50:56;7.20;76.50
3186;DHT22;1604;53.700;10.252;2024-03-08T16:54:00;7.10;76.90
3186;DHT22;1604;53.700;10.252;2024-03-08T16:57:02;7.10;76.90
3186;DHT22;1604;53.700;10.252;2024-03-08T17:00:07;6.90;78.40
3186;DHT22;1604;53.700;10.252;2024-03-08T17:03:10;6.90;83.60
3186;DHT22;1604;53.700;10.252;2024-03-08T17:06:13;6.80;90.30
3186;DHT22;1604;53.700;10.252;2024-03-08T17:09:17;6.60;94.80
3186;DHT22;1604;53.700;10.252;2024-03-08T17:12:19;6.50;97.20
3186;DHT22;1604;53.700;10.252;2024-03-08T17:15:21;6.30;98.60
3186;DHT22;1604;53.700;10.252;2024-03-08T17:18:24;6.20;99.60
3186;DHT22;1604;53.700;10.252;2024-03-08T17:21:26;6.10;99.90
3186;DHT22;1604;53.700;10.252;2024-03-08T17:24:31;6.00;99.90
3186;DHT22;1604;53.700;10.252;2024-03-08T17:27:33;5.90;99.90
3186;DHT22;1604;53.700;10.252;2024-03-08T17:30:36;5.70;99.90
3186;DHT22;1604;53.700;10.252;2024-03-08T17:33:41;5.60;99.90
3186;DHT22;1604;53.700;10.252;2024-03-08T17:36:43;5.50;99.90
3186;DHT22;1604;53.700;10.252;2024-03-08T17:39:47;5.40;99.90
3186;DHT22;1604;53.700;10.252;2024-03-08T17:42:49;5.30;99.90
3186;DHT22;1604;53.700;10.252;2024-03-08T17:45:52;5.20;99.90
3186;DHT22;1604;53.700;10.252;2024-03-08T17:48:56;5.10;99.90
3186;DHT22;1604;53.700;10.252;2024-03-08T17:51:58;5.00;99.90
3186;DHT22;1604;53.700;10.252;2024-03-08T17:55:07;4.90;99.90
3186;DHT22;1604;53.700;10.252;2024-03-08T17:58:14;4.80;99.90
3186;DHT22;1604;53.700;10.252;2024-03-08T18:01:16;4.70;99.90
3186;DHT22;1604;53.700;10.252;2024-03-08T18:04:18;4.60;99.90
3186;DHT22;1604;53.700;10.252;2024-03-08T18:07:23;4.50;99.90
3186;DHT22;1604;53.700;10.252;2024-03-08T18:10:27;4.40;99.90
3186;DHT22;1604;53.700;10.252;2024-03-08T18:13:30;4.40;99.90
3186;DHT22;1604;53.700;10.252;2024-03-08T18:16:34;4.20;99.90
3186;DHT22;1604;53.700;10.252;2024-03-08T18:19:39;4.20;99.90
3186;DHT22;1604;53.700;10.252;2024-03-08T18:22:41;4.10;99.90
3186;DHT22;1604;53.700;10.252;2024-03-08T18:25:46;4.00;99.90
3186;DHT22;1604;53.700;10.252;2024-03-08T18:28:48;4.00;99.90
3186;DHT22;1604;53.700;10.252;2024-03-08T18:31:50;3.90;99.90
3186;DHT22;1604;53.700;10.252;2024-03-08T18:34:52;3.90;99.90
3186;DHT22;1604;53.700;10.252;2024-03-08T18:37:55;3.80;99.90
3186;DHT22;1604;53.700;10.252;2024-03-08T18:40:59;3.80;99.90
3186;DHT22;1604;53.700;10.252;2024-03-08T18:44:01;3.80;99.90
3186;DHT22;1604;53.700;10.252;2024-03-08T18:47:04;3.80;99.90
3186;DHT22;1604;53.700;10.252;2024-03-08T18:50:08;3.80;99.90
3186;DHT22;1604;53.700;10.252;2024-03-08T18:53:12;3.70;99.90
3186;DHT22;1604;53.700;10.252;2024-03-08T18:56:19;3.60;99.90
3186;DHT22;1604;53.700;10.252;2024-03-08T18:59:22;3.60;99.90
3186;DHT22;1604;53.700;10.252;2024-03-08T19:02:24;3.60;99.90
3186;DHT22;1604;53.700;10.252;2024-03-08T19:05:26;3.50;99.90
3186;DHT22;1604;53.700;10.252;2024-03-08T19:08:29;3.40;99.90
3186;DHT22;1604;53.700;10.252;2024-03-08T19:11:34;3.40;99.90
3186;DHT22;1604;53.700;10.252;2024-03-08T19:14:36;3.40;99.90
3186;DHT22;1604;53.700;10.252;2024-03-08T19:17:38;3.30;99.90
3186;DHT22;1604;53.700;10.252;2024-03-08T19:20:40;3.30;99.90
3186;DHT22;1604;53.700;10.252;2024-03-08T19:23:43;3.30;99.90
3186;DHT22;1604;53.700;10.252;2024-03-08T19:26:46;3.20;99.90
3186;DHT22;1604;53.700;10.252;2024-03-08T19:29:49;3.20;99.90
3186;DHT22;1604;53.700;10.252;2024-03-08T19:32:56;3.20;99.90
3186;DHT22;1604;53.700;10.252;2024-03-08T19:35:58;3.10;99.90
3186;DHT22;1604;53.700;10.252;2024-03-08T19:39:01;3.10;99.90
3186;DHT22;1604;53.700;10.252;2024-03-08T19:42:05;3.00;99.90
3186;DHT22;1604;53.700;10.252;2024-03-08T19:45:08;3.00;99.90
3186;DHT22;1604;53.700;10.252;2024-03-08T19:48:11;3.00;99.90